Startpagina
METAR-TAF:

METAR-TAF

Vliegvelden :

M'banza-Kongo, Angola

breedte: 6-16-15S, lengte: 14-14-50E, hoogte: 567 m

METAR: ontbreekt

Tijdstip: 10:21 (09:21 UTC)

Verwachting

Dit bericht is 10 uur en het 21 minuten geleden gemaakt, om 23:00 UTC
Verwachting geldig van 25 om 00 UTC tot 25 om 12 UTC
Wind 6 kt uit het zuiden
Zicht 10 km of meer
Weinig wolken op 2200 ft
Tijdelijke
van 25 om 03 UTC tot 25 om 08 UTC
Zicht: 5000 m
nevel
Wijzigt naar
van 25 om 09 UTC tot 25 om 12 UTC
Wind 5 kt uit het zuidzuidwesten
Verspreide wolken op 1800 ft

TAF: FNBC 242300Z 2500/2512 19006KT 9999 FEW022 TEMPO 2503/2508 5000 BR BECMG 2509/2512 20005KT SCT018

Waarnemingen en weersverwachtingen van meer dan 4000 vliegvelden (METAR en TAF).

De beschikbare stations zijn de gele en rode punten op de kaart.

Ga met uw muis naar het station om de naam te zien.

Klik dan om waarnemingen en weersverwachtingen te zien.

kaart wijzigen: klik op de groene knoppen met een zwart kruis om in te zoomen, op de groene knop met een streepje om uit te zoomen of op de groene pijlen voor aangrenzende kaarten.


METAR-TAF: